Аэропорт
Шымкент (UAII)

 UAII / CIT
ЗЦ Центральная Азия
Шымкент (UAII)
Шымкент (UAII)
 42.36420, 69.47890  / 1385 ft

 UAII 300630Z 28002MPS CAVOK 14/M07 Q1027 R28/0///70 NOSIG RMK QFE733/0977
 TAF UAII 292300Z 3000/3024 08003G08MPS 9999 SCT050 BKN100 TX18/3010Z TNM01/3001Z TEMPO 3000/3004 11003G08MPS 3100 BR FU TEMPO 3004/3012 28003G08MPS SCT050CB
показать схемы
Название сценария Тип сценария Flight Simulator 9 Flight Simulator X Prepar3D v2 Prepar3D v3 Prepar3D v4 Prepar3D v5 xPlane
Recommended scenery for FS9 бесплатный
Recommended scenery for FSX бесплатный


2020 © VATRUS division (Privacy Policy)